Time;durP1;ratioP1;P1;durP2;ratioP2;P2;SDS_P1;SDS_P2;PMS_P1;PMS_P2;Temp;Humidity;BMP_temperature;BMP_pressure;BME280_temperature;BME280_humidity;BME280_pressure;Samples;Min_cycle;Max_cycle;Signal;HPM_P1;HPM_P2
2021/01/01 00:02:11;;;;;;;19.60;12.65;;;5.00;99.90;;;;;;5023036;28;20206;-74
2021/01/01 00:04:56;;;;;;;16.38;12.55;;;4.90;99.90;;;;;;5024246;28;20571;-74
2021/01/01 00:07:42;;;;;;;17.58;12.68;;;4.90;99.90;;;;;;5023226;28;20252;-73
2021/01/01 00:10:28;;;;;;;20.30;13.30;;;4.90;99.90;;;;;;5027103;28;20313;-73
2021/01/01 00:13:13;;;;;;;15.82;12.40;;;4.90;99.90;;;;;;5024470;28;20728;-72
2021/01/01 00:15:58;;;;;;;18.08;12.20;;;5.00;99.90;;;;;;5023293;28;20281;-74
2021/01/01 00:18:44;;;;;;;18.45;13.45;;;5.00;99.90;;;;;;5026247;28;21029;-73
2021/01/01 00:21:29;;;;;;;16.33;12.38;;;5.00;99.90;;;;;;5026760;28;20337;-72
2021/01/01 00:24:15;;;;;;;19.70;15.20;;;5.00;99.90;;;;;;5025800;28;20233;-75
2021/01/01 00:27:01;;;;;;;18.00;13.55;;;4.90;99.90;;;;;;5025760;28;20728;-74
2021/01/01 00:29:46;;;;;;;19.85;14.13;;;4.90;99.90;;;;;;5024659;28;20292;-75
2021/01/01 00:32:32;;;;;;;19.40;15.10;;;4.90;99.90;;;;;;5026414;28;20352;-74
2021/01/01 00:35:17;;;;;;;22.27;15.65;;;4.90;99.90;;;;;;5019063;28;20213;-74
2021/01/01 00:38:03;;;;;;;20.45;14.07;;;4.90;99.90;;;;;;5018863;28;20392;-75
2021/01/01 00:40:48;;;;;;;21.85;15.10;;;4.90;99.90;;;;;;5022246;28;20229;-74
2021/01/01 00:43:33;;;;;;;19.45;13.95;;;4.90;99.90;;;;;;5021121;28;20229;-75
2021/01/01 00:46:19;;;;;;;15.93;12.57;;;5.00;99.90;;;;;;5025428;28;20264;-74
2021/01/01 00:49:05;;;;;;;19.83;13.82;;;5.00;99.90;;;;;;5018928;28;20268;-72
2021/01/01 00:51:50;;;;;;;17.85;13.35;;;5.00;99.90;;;;;;5026174;28;20297;-75
2021/01/01 00:54:35;;;;;;;20.83;14.68;;;5.10;99.90;;;;;;5025260;28;20225;-74
2021/01/01 00:57:20;;;;;;;21.42;14.32;;;5.00;99.90;;;;;;5022373;28;20572;-75
2021/01/01 01:00:07;;;;;;;18.30;13.75;;;5.00;99.90;;;;;;5027259;28;20878;-73
2021/01/01 01:02:52;;;;;;;18.13;12.43;;;5.00;99.90;;;;;;5018366;28;20698;-74
2021/01/01 01:05:38;;;;;;;17.77;12.32;;;4.90;99.90;;;;;;5021755;28;20212;-75
2021/01/01 01:08:23;;;;;;;18.15;12.18;;;5.00;99.90;;;;;;5024351;28;20209;-75
2021/01/01 01:11:08;;;;;;;18.55;12.73;;;5.00;99.90;;;;;;5024937;28;20392;-75
2021/01/01 01:13:55;;;;;;;19.38;13.88;;;5.00;99.90;;;;;;5025965;28;20204;-73
2021/01/01 01:16:40;;;;;;;17.42;14.30;;;5.00;99.90;;;;;;5021994;28;20272;-74
2021/01/01 01:19:25;;;;;;;19.42;14.07;;;5.00;99.90;;;;;;5020638;28;20221;-75
2021/01/01 01:22:11;;;;;;;21.15;14.90;;;5.00;99.90;;;;;;5021388;28;20213;-75
2021/01/01 01:24:56;;;;;;;17.25;13.48;;;5.10;99.90;;;;;;5020115;28;20250;-73
2021/01/01 01:27:41;;;;;;;19.92;14.00;;;5.00;99.90;;;;;;5024362;28;20225;-74
2021/01/01 01:30:27;;;;;;;15.88;13.18;;;5.10;99.90;;;;;;5021355;28;20240;-74
2021/01/01 01:33:12;;;;;;;22.88;15.70;;;5.00;99.90;;;;;;5020533;28;20836;-74
2021/01/01 01:35:57;;;;;;;17.70;11.88;;;5.00;99.90;;;;;;5020638;28;20213;-74
2021/01/01 01:38:43;;;;;;;16.77;12.90;;;5.00;99.90;;;;;;5024632;28;20229;-74
2021/01/01 01:41:28;;;;;;;18.98;13.25;;;5.00;99.90;;;;;;5024649;28;20279;-74
2021/01/01 01:44:13;;;;;;;16.10;11.40;;;4.90;99.90;;;;;;5021250;28;20210;-74
2021/01/01 01:46:58;;;;;;;21.15;12.50;;;4.90;99.90;;;;;;5020308;28;20208;-74
2021/01/01 01:49:44;;;;;;;18.25;12.18;;;4.90;99.90;;;;;;5019914;28;20229;-74
2021/01/01 01:52:29;;;;;;;16.08;12.68;;;4.90;99.90;;;;;;5021801;28;20256;-74
2021/01/01 01:55:15;;;;;;;17.38;11.27;;;4.90;99.90;;;;;;5023021;28;20206;-73
2021/01/01 01:58:01;;;;;;;17.02;10.85;;;4.70;99.90;;;;;;5020756;28;20223;-73
2021/01/01 02:00:58;;;;;;;15.13;11.20;;;4.70;99.90;;;;;;5018218;28;20229;-74
2021/01/01 02:03:43;;;;;;;15.15;10.73;;;4.70;99.90;;;;;;5016453;28;20221;-73
2021/01/01 02:06:28;;;;;;;17.52;12.27;;;4.80;99.90;;;;;;5019926;28;20857;-74
2021/01/01 02:09:14;;;;;;;15.75;10.98;;;4.80;99.90;;;;;;5024004;28;20232;-74
2021/01/01 02:12:00;;;;;;;14.85;10.80;;;4.80;99.90;;;;;;5023546;28;20232;-74
2021/01/01 02:14:45;;;;;;;16.60;10.80;;;4.80;99.90;;;;;;5022467;28;20991;-74
2021/01/01 02:17:30;;;;;;;15.82;11.65;;;4.90;99.90;;;;;;5024881;28;20225;-74
2021/01/01 02:20:16;;;;;;;15.85;10.27;;;4.80;99.90;;;;;;5020950;28;20225;-76
2021/01/01 02:23:03;;;;;;;17.27;11.60;;;4.80;99.90;;;;;;5022008;28;20237;-74
2021/01/01 02:25:48;;;;;;;16.50;11.45;;;4.70;99.90;;;;;;5023589;28;20579;-74
2021/01/01 02:28:33;;;;;;;15.80;10.25;;;4.70;99.90;;;;;;5023530;28;20272;-74
2021/01/01 02:31:18;;;;;;;16.67;12.10;;;4.70;99.90;;;;;;5023244;28;20297;-71
2021/01/01 02:34:03;;;;;;;18.25;12.55;;;4.70;99.90;;;;;;5024389;28;20252;-74
2021/01/01 02:36:48;;;;;;;14.73;10.77;;;4.70;99.90;;;;;;5025321;28;20716;-74
2021/01/01 02:39:34;;;;;;;17.42;10.90;;;4.70;99.90;;;;;;5021025;28;20229;-74
2021/01/01 02:42:20;;;;;;;18.95;12.13;;;4.80;99.90;;;;;;5021623;28;20200;-75
2021/01/01 02:45:06;;;;;;;21.92;11.40;;;4.80;99.90;;;;;;5029726;28;20201;-73
2021/01/01 02:47:51;;;;;;;17.02;11.52;;;4.80;99.90;;;;;;5021208;28;20356;-72
2021/01/01 02:50:36;;;;;;;14.85;11.25;;;4.90;99.90;;;;;;5021866;28;20225;-74
2021/01/01 02:53:21;;;;;;;14.88;11.43;;;4.90;99.90;;;;;;5021508;28;20370;-74
2021/01/01 02:56:07;;;;;;;16.85;11.77;;;4.90;99.90;;;;;;5021242;28;20268;-74
2021/01/01 02:58:52;;;;;;;14.70;10.73;;;4.90;99.90;;;;;;5026477;28;20260;-74
2021/01/01 03:01:38;;;;;;;17.95;11.55;;;4.90;99.90;;;;;;5025342;28;20210;-74
2021/01/01 03:04:23;;;;;;;19.38;10.90;;;4.80;99.90;;;;;;5027467;28;20220;-74
2021/01/01 03:07:08;;;;;;;19.88;12.27;;;4.90;99.90;;;;;;5022092;28;20242;-74
2021/01/01 03:09:53;;;;;;;20.23;12.18;;;4.80;99.90;;;;;;5023579;28;20265;-75
2021/01/01 03:12:39;;;;;;;15.55;11.35;;;4.70;99.90;;;;;;5029359;28;20229;-75
2021/01/01 03:15:25;;;;;;;16.20;11.18;;;4.70;99.90;;;;;;5030499;28;20201;-75
2021/01/01 03:18:10;;;;;;;14.80;10.63;;;4.70;99.90;;;;;;5027604;28;20233;-74
2021/01/01 03:20:55;;;;;;;15.75;10.90;;;4.80;99.90;;;;;;5022160;28;20718;-74
2021/01/01 03:23:40;;;;;;;11.43;9.73;;;4.80;99.90;;;;;;5027701;28;20210;-75
2021/01/01 03:26:25;;;;;;;14.30;11.52;;;4.70;99.90;;;;;;5027814;28;20574;-75
2021/01/01 03:29:11;;;;;;;13.98;9.82;;;4.70;99.90;;;;;;5026836;28;20209;-75
2021/01/01 03:31:56;;;;;;;12.25;9.27;;;4.60;99.90;;;;;;5022491;28;20238;-74
2021/01/01 03:34:41;;;;;;;12.68;9.85;;;4.70;99.90;;;;;;5025958;28;20576;-74
2021/01/01 03:37:26;;;;;;;19.75;9.85;;;4.60;99.90;;;;;;5022010;28;20206;-73
2021/01/01 03:40:12;;;;;;;12.82;8.65;;;4.70;99.90;;;;;;5023486;28;20221;-75
2021/01/01 03:42:57;;;;;;;11.77;8.27;;;4.60;99.90;;;;;;5028675;28;20260;-74
2021/01/01 03:45:43;;;;;;;13.25;8.60;;;4.70;99.90;;;;;;5018716;28;20792;-74
2021/01/01 03:48:28;;;;;;;12.30;8.70;;;4.70;99.90;;;;;;5022006;28;20210;-75
2021/01/01 03:51:13;;;;;;;13.80;7.88;;;4.70;99.90;;;;;;5026446;28;20224;-75
2021/01/01 03:53:58;;;;;;;11.63;8.70;;;4.80;99.90;;;;;;5026769;28;20297;-74
2021/01/01 03:56:44;;;;;;;14.38;9.15;;;4.80;99.90;;;;;;5020000;28;20197;-74
2021/01/01 03:59:29;;;;;;;14.70;9.15;;;4.80;99.90;;;;;;5022243;28;20707;-73
2021/01/01 04:02:14;;;;;;;14.57;9.50;;;4.70;99.90;;;;;;5022536;28;20221;-74
2021/01/01 04:04:59;;;;;;;13.57;8.43;;;4.70;99.90;;;;;;5020392;28;20249;-74
2021/01/01 04:07:45;;;;;;;14.25;9.85;;;4.80;99.90;;;;;;5028952;28;20202;-74
2021/01/01 04:10:30;;;;;;;15.63;11.48;;;4.80;99.90;;;;;;5021287;28;20230;-75
2021/01/01 04:13:15;;;;;;;16.27;10.32;;;4.80;99.90;;;;;;5025595;28;20202;-74
2021/01/01 04:16:01;;;;;;;12.57;9.57;;;4.80;99.90;;;;;;5023720;28;20711;-74
2021/01/01 04:18:47;;;;;;;14.77;10.40;;;4.80;99.90;;;;;;5021877;28;20221;-74
2021/01/01 04:21:32;;;;;;;14.55;10.18;;;4.80;99.90;;;;;;5027999;28;20228;-74
2021/01/01 04:24:19;;;;;;;14.88;9.50;;;4.80;99.90;;;;;;5025278;28;20217;-75
2021/01/01 04:27:04;;;;;;;14.70;10.52;;;4.80;99.90;;;;;;5020008;28;20242;-74
2021/01/01 04:29:49;;;;;;;18.50;13.65;;;4.80;99.90;;;;;;5022063;28;20269;-74
2021/01/01 04:32:34;;;;;;;20.88;14.15;;;4.60;99.90;;;;;;5020612;28;20696;-76
2021/01/01 04:35:20;;;;;;;18.52;12.60;;;4.60;99.90;;;;;;5022738;28;20257;-74
2021/01/01 04:38:05;;;;;;;18.70;12.68;;;4.70;99.90;;;;;;5023946;28;20308;-74
2021/01/01 04:40:52;;;;;;;23.02;14.35;;;4.80;99.90;;;;;;5022547;28;20237;-75
2021/01/01 04:43:38;;;;;;;17.42;13.30;;;4.80;99.90;;;;;;5017705;28;20704;-74
2021/01/01 04:46:23;;;;;;;16.92;12.38;;;4.80;99.90;;;;;;5021783;28;20319;-74
2021/01/01 04:49:08;;;;;;;18.38;11.95;;;4.80;99.90;;;;;;5023287;28;20242;-73
2021/01/01 04:51:56;;;;;;;19.63;12.10;;;4.80;99.90;;;;;;5025431;28;20256;-74
2021/01/01 04:54:44;;;;;;;19.38;12.40;;;4.70;99.90;;;;;;5024970;28;20249;-73
2021/01/01 04:57:30;;;;;;;15.57;11.40;;;4.70;99.90;;;;;;5021390;28;20241;-75
2021/01/01 05:00:16;;;;;;;19.10;11.15;;;4.60;99.90;;;;;;5021795;28;20284;-74
2021/01/01 05:03:02;;;;;;;17.83;11.15;;;4.70;99.90;;;;;;5022644;28;20249;-75
2021/01/01 05:05:48;;;;;;;16.23;11.30;;;4.60;99.90;;;;;;5018515;28;20577;-74
2021/01/01 05:08:34;;;;;;;16.33;11.77;;;4.60;99.90;;;;;;5025164;28;20260;-72
2021/01/01 05:11:21;;;;;;;17.52;11.00;;;4.70;99.90;;;;;;5028662;28;20232;-74
2021/01/01 05:14:08;;;;;;;17.40;10.00;;;4.60;99.90;;;;;;5019249;28;20309;-74
2021/01/01 05:16:54;;;;;;;19.50;12.93;;;4.70;99.90;;;;;;5024135;28;20273;-74
2021/01/01 05:19:40;;;;;;;15.35;11.73;;;4.60;99.90;;;;;;5029322;28;20255;-74
2021/01/01 05:22:32;;;;;;;18.02;11.10;;;4.60;99.90;;;;;;5026181;28;20221;-74
2021/01/01 05:25:18;;;;;;;17.10;10.32;;;4.60;99.90;;;;;;5024113;28;20237;-74
2021/01/01 05:28:13;;;;;;;13.45;10.38;;;4.60;99.90;;;;;;5024454;28;20205;-74
2021/01/01 05:30:58;;;;;;;13.23;9.77;;;4.70;99.90;;;;;;5023774;28;20236;-75
2021/01/01 05:33:50;;;;;;;16.38;10.38;;;4.70;99.90;;;;;;5026040;28;20303;-74
2021/01/01 05:36:38;;;;;;;14.55;10.20;;;4.70;99.90;;;;;;5023947;28;20229;-74
2021/01/01 05:39:23;;;;;;;15.30;10.52;;;4.50;99.90;;;;;;5024199;28;20221;-75
2021/01/01 05:42:10;;;;;;;16.90;10.38;;;4.50;99.90;;;;;;5025454;28;20202;-75
2021/01/01 05:44:55;;;;;;;12.65;9.27;;;4.60;99.90;;;;;;5023541;28;20926;-75
2021/01/01 05:47:40;;;;;;;14.57;9.02;;;4.60;99.90;;;;;;5024397;28;20209;-74
2021/01/01 05:50:25;;;;;;;15.80;10.18;;;4.50;99.90;;;;;;5023369;28;20225;-74
2021/01/01 05:53:15;;;;;;;14.00;10.30;;;4.50;99.90;;;;;;5023061;28;20685;-73
2021/01/01 05:56:08;;;;;;;15.93;10.93;;;4.50;99.90;;;;;;5023616;28;20228;-73
2021/01/01 05:58:54;;;;;;;15.52;10.60;;;4.40;99.90;;;;;;5024855;28;20751;-75
2021/01/01 06:01:41;;;;;;;16.63;10.25;;;4.30;99.90;;;;;;5023008;28;20210;-73
2021/01/01 06:04:28;;;;;;;15.55;10.50;;;4.20;99.90;;;;;;5020174;28;20627;-74
2021/01/01 06:07:13;;;;;;;17.23;10.75;;;4.20;99.90;;;;;;5021157;28;20216;-74
2021/01/01 06:10:03;;;;;;;14.38;10.50;;;4.30;99.90;;;;;;5018847;28;20700;-74
2021/01/01 06:12:53;;;;;;;14.05;10.38;;;4.30;99.90;;;;;;5023716;28;20606;-74
2021/01/01 06:15:43;;;;;;;14.73;10.57;;;4.30;99.90;;;;;;5022359;28;20347;-74
2021/01/01 06:18:30;;;;;;;18.05;10.77;;;4.20;99.90;;;;;;5021102;28;20304;-74
2021/01/01 06:21:33;;;;;;;16.10;11.13;;;4.20;99.90;;;;;;5021656;28;20601;-74
2021/01/01 06:24:19;;;;;;;18.30;11.27;;;4.20;99.90;;;;;;5027022;28;20205;-74
2021/01/01 06:27:06;;;;;;;18.17;10.77;;;4.20;99.90;;;;;;5025232;28;20253;-74
2021/01/01 06:29:56;;;;;;;16.30;11.55;;;4.20;99.90;;;;;;5020475;28;20288;-73
2021/01/01 06:32:42;;;;;;;15.45;12.00;;;4.30;99.90;;;;;;5022980;28;20294;-72
2021/01/01 06:35:27;;;;;;;16.98;11.00;;;4.20;99.90;;;;;;5028408;28;20267;-74
2021/01/01 06:38:32;;;;;;;18.00;11.63;;;4.20;99.90;;;;;;5025123;28;20766;-75
2021/01/01 06:41:43;;;;;;;14.45;10.88;;;4.30;99.90;;;;;;5028791;28;20320;-74
2021/01/01 06:44:34;;;;;;;14.38;10.20;;;4.20;99.90;;;;;;5024247;28;20264;-74
2021/01/01 06:47:52;;;;;;;17.35;12.05;;;4.20;99.90;;;;;;5024722;28;20201;-74
2021/01/01 06:50:40;;;;;;;18.15;10.63;;;4.20;99.90;;;;;;5024965;28;20256;-74
2021/01/01 06:53:27;;;;;;;13.13;9.80;;;4.20;99.90;;;;;;5028862;28;20578;-74
2021/01/01 06:56:13;;;;;;;13.55;8.77;;;4.20;99.90;;;;;;5027825;28;20264;-73
2021/01/01 06:59:08;;;;;;;12.43;9.02;;;4.20;99.90;;;;;;5020256;28;20224;-73
2021/01/01 07:01:54;;;;;;;18.77;11.20;;;4.30;99.90;;;;;;5021729;28;20210;-75
2021/01/01 07:04:47;;;;;;;12.30;9.13;;;4.20;99.90;;;;;;5025769;28;20206;-73
2021/01/01 07:07:44;;;;;;;12.38;8.32;;;4.20;99.90;;;;;;5029035;28;20233;-74
2021/01/01 07:10:35;;;;;;;12.07;8.13;;;4.20;99.90;;;;;;5025626;28;20312;-73
2021/01/01 07:13:20;;;;;;;14.68;7.70;;;4.30;99.90;;;;;;5027089;28;20209;-75
2021/01/01 07:16:06;;;;;;;12.02;8.13;;;4.30;99.90;;;;;;5024541;28;20628;-73
2021/01/01 07:18:52;;;;;;;10.88;7.60;;;4.30;99.90;;;;;;5025582;28;20318;-74
2021/01/01 07:21:39;;;;;;;9.88;7.53;;;4.30;99.90;;;;;;5029344;28;20241;-74
2021/01/01 07:24:25;;;;;;;14.05;7.20;;;4.30;99.90;;;;;;5025298;28;20735;-74
2021/01/01 07:27:10;;;;;;;13.63;8.00;;;4.20;99.90;;;;;;5024943;28;20272;-73
2021/01/01 07:30:08;;;;;;;9.80;6.80;;;4.20;99.90;;;;;;5021016;28;20268;-73
2021/01/01 07:32:55;;;;;;;11.98;7.55;;;4.20;99.90;;;;;;5019648;28;20325;-72
2021/01/01 07:35:50;;;;;;;8.52;6.63;;;4.20;99.90;;;;;;5025401;28;20229;-72
2021/01/01 07:38:36;;;;;;;11.38;7.38;;;4.40;99.90;;;;;;5025514;28;20285;-75
2021/01/01 07:41:23;;;;;;;9.52;7.30;;;4.40;99.90;;;;;;5026845;28;20229;-73
2021/01/01 07:44:08;;;;;;;10.40;6.85;;;4.50;99.90;;;;;;5024283;28;20205;-73
2021/01/01 07:46:53;;;;;;;10.63;7.15;;;4.50;99.90;;;;;;5022179;28;20221;-74
2021/01/01 07:49:38;;;;;;;8.65;6.43;;;4.50;99.90;;;;;;5022704;28;20241;-74
2021/01/01 07:52:23;;;;;;;12.63;6.60;;;4.50;99.90;;;;;;5023052;28;20198;-73
2021/01/01 07:55:09;;;;;;;9.95;6.30;;;4.50;99.90;;;;;;5025334;28;20217;-74
2021/01/01 07:58:00;;;;;;;9.10;5.95;;;4.50;99.90;;;;;;5023193;28;20264;-73
2021/01/01 08:00:47;;;;;;;8.82;6.63;;;4.50;99.90;;;;;;5020176;28;20245;-74
2021/01/01 08:03:33;;;;;;;11.13;6.72;;;4.60;99.90;;;;;;5022444;28;20259;-74
2021/01/01 08:06:19;;;;;;;9.52;7.75;;;4.40;99.90;;;;;;5026165;28;20256;-73
2021/01/01 08:09:05;;;;;;;9.35;7.10;;;4.40;99.90;;;;;;5020192;28;20292;-73
2021/01/01 08:11:51;;;;;;;11.75;7.53;;;4.40;99.90;;;;;;5027579;28;20205;-73
2021/01/01 08:14:36;;;;;;;11.18;8.57;;;4.40;99.90;;;;;;5027127;28;20256;-73
2021/01/01 08:17:23;;;;;;;13.85;8.90;;;4.40;99.90;;;;;;5021997;28;20264;-74
2021/01/01 08:20:16;;;;;;;11.55;7.85;;;4.40;99.90;;;;;;5023965;28;20261;-74
2021/01/01 08:23:05;;;;;;;11.35;8.43;;;4.40;99.90;;;;;;5021318;28;20283;-73
2021/01/01 08:25:52;;;;;;;11.93;7.85;;;4.40;99.90;;;;;;5027679;28;20208;-74
2021/01/01 08:28:39;;;;;;;12.05;9.52;;;4.40;99.90;;;;;;5025803;28;20689;-74
2021/01/01 08:31:25;;;;;;;10.88;9.05;;;4.40;99.90;;;;;;5026614;28;20596;-72
2021/01/01 08:34:11;;;;;;;11.30;9.25;;;4.50;99.90;;;;;;5022878;28;20200;-74
2021/01/01 08:36:57;;;;;;;12.35;9.75;;;4.50;99.90;;;;;;5024579;28;20240;-74
2021/01/01 08:39:42;;;;;;;14.50;10.73;;;4.50;99.90;;;;;;5025163;28;20245;-73
2021/01/01 08:42:33;;;;;;;12.80;9.77;;;4.40;99.90;;;;;;5030779;28;20235;-74
2021/01/01 08:45:19;;;;;;;11.38;8.73;;;4.50;99.90;;;;;;5024305;28;20580;-74
2021/01/01 08:48:10;;;;;;;11.27;8.55;;;4.50;99.90;;;;;;5021944;28;20206;-74
2021/01/01 08:50:56;;;;;;;13.60;8.90;;;4.50;99.90;;;;;;5024372;28;20345;-74
2021/01/01 08:53:42;;;;;;;25.88;14.93;;;4.60;99.90;;;;;;5021989;28;20696;-73
2021/01/01 08:56:28;;;;;;;30.13;17.15;;;4.60;99.90;;;;;;5026248;28;20213;-74
2021/01/01 08:59:13;;;;;;;23.75;14.98;;;4.50;99.90;;;;;;5020123;28;20729;-74
2021/01/01 09:02:00;;;;;;;31.67;20.00;;;4.60;99.90;;;;;;5020626;28;20198;-74
2021/01/01 09:04:48;;;;;;;16.67;11.77;;;4.60;99.90;;;;;;5024775;28;20202;-74
2021/01/01 09:07:34;;;;;;;13.52;10.30;;;4.70;99.90;;;;;;5020165;28;20332;-75
2021/01/01 09:10:20;;;;;;;12.00;9.20;;;4.80;99.90;;;;;;5027462;28;20221;-74
2021/01/01 09:13:16;;;;;;;14.15;9.30;;;4.80;99.90;;;;;;5034319;28;20205;-74
2021/01/01 09:16:02;;;;;;;16.15;11.10;;;4.90;99.90;;;;;;5022734;28;20705;-74
2021/01/01 09:18:47;;;;;;;14.27;9.80;;;4.90;99.90;;;;;;5021339;28;20218;-73
2021/01/01 09:21:33;;;;;;;12.85;8.90;;;4.70;99.90;;;;;;5022473;28;20718;-74
2021/01/01 09:24:24;;;;;;;11.52;8.68;;;4.70;99.90;;;;;;5030350;28;20220;-74
2021/01/01 09:27:09;;;;;;;12.07;9.48;;;4.70;99.90;;;;;;5029046;28;20325;-74
2021/01/01 09:30:03;;;;;;;14.00;10.10;;;4.70;99.90;;;;;;5025717;28;20681;-74
2021/01/01 09:32:50;;;;;;;12.98;9.50;;;4.70;99.90;;;;;;5023035;28;20229;-74
2021/01/01 09:35:35;;;;;;;12.10;10.05;;;4.70;99.90;;;;;;5023397;28;20850;-74
2021/01/01 09:38:23;;;;;;;14.00;10.90;;;4.70;99.90;;;;;;5027858;28;20873;-73
2021/01/01 09:41:08;;;;;;;12.98;9.63;;;4.60;99.90;;;;;;5024366;28;20244;-74
2021/01/01 09:43:54;;;;;;;13.85;10.00;;;4.40;99.90;;;;;;5026687;28;20205;-74
2021/01/01 09:46:42;;;;;;;13.63;9.82;;;4.30;99.90;;;;;;5027780;28;20209;-74
2021/01/01 09:49:27;;;;;;;13.55;10.32;;;4.40;99.90;;;;;;5026528;28;20754;-74
2021/01/01 09:52:12;;;;;;;12.00;9.57;;;4.40;99.90;;;;;;5026656;28;20210;-74
2021/01/01 09:54:59;;;;;;;11.75;9.13;;;4.50;99.90;;;;;;5025904;28;20205;-74
2021/01/01 09:57:44;;;;;;;11.75;8.93;;;4.60;99.90;;;;;;5027650;28;20592;-74
2021/01/01 10:00:29;;;;;;;13.80;10.18;;;4.70;99.90;;;;;;5026898;28;20843;-74
2021/01/01 10:03:14;;;;;;;14.38;9.10;;;4.80;99.90;;;;;;5029389;28;20205;-75
2021/01/01 10:05:59;;;;;;;12.45;9.95;;;4.80;99.90;;;;;;5025481;28;20206;-75
2021/01/01 10:08:44;;;;;;;15.20;9.75;;;4.80;99.90;;;;;;5025230;28;20213;-74
2021/01/01 10:11:30;;;;;;;12.80;9.10;;;4.90;99.90;;;;;;5020652;28;20229;-74
2021/01/01 10:14:15;;;;;;;10.95;8.65;;;5.00;99.90;;;;;;5017956;28;20217;-74
2021/01/01 10:17:00;;;;;;;14.30;9.43;;;5.10;99.90;;;;;;5022822;28;20209;-75
2021/01/01 10:19:45;;;;;;;13.65;10.75;;;5.20;99.90;;;;;;5015684;28;20229;-74
2021/01/01 10:22:30;;;;;;;15.63;9.88;;;5.20;99.90;;;;;;5021495;28;20240;-74
2021/01/01 10:25:16;;;;;;;12.80;10.00;;;5.20;99.90;;;;;;5014894;28;20246;-73
2021/01/01 10:28:01;;;;;;;12.30;9.77;;;5.10;99.90;;;;;;5019851;28;20226;-75
2021/01/01 10:30:47;;;;;;;16.27;10.95;;;5.00;99.90;;;;;;5022919;28;20233;-75
2021/01/01 10:33:31;;;;;;;18.80;11.88;;;4.90;99.90;;;;;;5019696;28;20212;-74
2021/01/01 10:36:17;;;;;;;14.77;10.50;;;5.00;99.90;;;;;;5021110;28;20252;-74
2021/01/01 10:39:02;;;;;;;11.32;9.20;;;5.10;99.90;;;;;;5024788;28;20357;-75
2021/01/01 10:41:48;;;;;;;11.85;9.35;;;5.10;99.90;;;;;;5026789;28;20200;-75
2021/01/01 10:44:35;;;;;;;13.63;9.68;;;5.10;99.90;;;;;;5026394;28;20213;-74
2021/01/01 10:47:20;;;;;;;14.75;10.68;;;5.10;99.90;;;;;;5023302;28;20370;-75
2021/01/01 10:50:06;;;;;;;13.38;10.77;;;5.10;99.90;;;;;;5020804;28;20681;-74
2021/01/01 10:52:51;;;;;;;15.13;11.10;;;5.10;99.90;;;;;;5023132;28;20292;-73
2021/01/01 10:55:39;;;;;;;13.48;10.27;;;5.10;99.90;;;;;;5019006;28;20208;-74
2021/01/01 10:58:25;;;;;;;15.20;10.98;;;5.00;99.90;;;;;;5025364;28;20311;-74
2021/01/01 11:01:11;;;;;;;14.82;11.10;;;5.00;99.90;;;;;;5022168;28;20268;-74
2021/01/01 11:03:56;;;;;;;15.82;10.80;;;5.10;99.90;;;;;;5021430;28;20201;-74
2021/01/01 11:06:43;;;;;;;13.93;10.90;;;5.20;99.90;;;;;;5022610;28;20232;-74
2021/01/01 11:09:29;;;;;;;18.60;11.45;;;5.30;99.90;;;;;;5024734;28;20221;-72
2021/01/01 11:12:14;;;;;;;12.45;10.10;;;5.30;99.90;;;;;;5022909;28;20217;-76
2021/01/01 12:22:49;;;;;;;14.18;9.98;;;5.20;99.90;;;;;;5020067;28;20297;-74
2021/01/01 12:25:35;;;;;;;11.52;8.55;;;5.20;99.90;;;;;;5027731;28;20312;-76
2021/01/01 12:28:22;;;;;;;12.48;9.23;;;5.20;99.90;;;;;;5026067;28;20256;-76
2021/01/01 12:31:09;;;;;;;12.60;10.20;;;5.20;99.90;;;;;;5023743;28;20225;-76
2021/01/01 12:33:54;;;;;;;11.95;9.38;;;5.10;99.90;;;;;;5027336;28;20301;-75
2021/01/01 12:36:40;;;;;;;11.52;8.38;;;5.20;99.90;;;;;;5016801;28;20217;-75
2021/01/01 12:39:25;;;;;;;10.60;8.30;;;5.20;99.90;;;;;;5021327;28;20309;-76
2021/01/01 12:42:10;;;;;;;11.45;8.15;;;5.20;99.90;;;;;;5025903;28;20209;-75
2021/01/01 12:44:55;;;;;;;10.55;8.02;;;5.30;99.90;;;;;;5019973;28;20205;-75
2021/01/01 12:47:40;;;;;;;8.70;7.80;;;5.30;99.90;;;;;;5024880;28;20213;-76
2021/01/01 12:50:25;;;;;;;12.63;8.63;;;5.40;99.90;;;;;;5020843;28;20268;-75
2021/01/01 12:53:12;;;;;;;11.00;8.93;;;5.40;99.90;;;;;;5021828;28;20558;-76
2021/01/01 12:55:57;;;;;;;11.90;8.60;;;5.40;99.90;;;;;;5018309;28;20209;-76
2021/01/01 12:58:42;;;;;;;8.60;7.50;;;5.30;99.90;;;;;;5026209;28;20229;-75
2021/01/01 13:01:27;;;;;;;11.02;8.55;;;5.20;99.90;;;;;;5024770;28;20233;-76
2021/01/01 13:04:12;;;;;;;11.32;8.27;;;5.20;99.90;;;;;;5019777;28;20237;-74
2021/01/01 13:06:57;;;;;;;11.40;7.50;;;5.20;99.90;;;;;;5024957;28;20329;-73
2021/01/01 13:09:43;;;;;;;10.80;8.15;;;5.30;99.90;;;;;;5020264;28;20256;-76
2021/01/01 13:12:28;;;;;;;11.77;9.48;;;5.20;99.90;;;;;;5027164;28;20786;-76
2021/01/01 13:15:13;;;;;;;11.63;9.23;;;5.10;99.90;;;;;;5025897;28;20821;-75
2021/01/01 13:17:58;;;;;;;12.05;8.75;;;5.20;99.90;;;;;;5021790;28;20212;-76
2021/01/01 13:20:44;;;;;;;13.60;9.10;;;5.10;99.90;;;;;;5019668;28;20229;-74
2021/01/01 13:23:28;;;;;;;11.95;9.38;;;5.10;99.90;;;;;;5020474;28;20217;-75
2021/01/01 13:26:20;;;;;;;13.30;9.25;;;5.10;99.90;;;;;;5024425;28;20213;-75
2021/01/01 13:29:05;;;;;;;11.90;9.20;;;5.20;99.90;;;;;;5022197;28;20209;-75
2021/01/01 13:31:50;;;;;;;10.27;8.35;;;5.20;99.90;;;;;;5014593;28;20338;-75
2021/01/01 13:34:35;;;;;;;13.30;9.00;;;5.30;99.90;;;;;;5022887;28;20213;-74
2021/01/01 13:37:20;;;;;;;11.10;8.65;;;5.30;99.90;;;;;;5022983;28;20213;-76
2021/01/01 13:40:07;;;;;;;10.82;8.70;;;5.40;99.90;;;;;;5024411;28;20230;-76
2021/01/01 13:42:52;;;;;;;14.00;9.88;;;5.40;99.90;;;;;;5014733;28;20237;-75
2021/01/01 13:45:39;;;;;;;13.25;9.00;;;5.40;99.90;;;;;;5015246;28;20260;-75
2021/01/01 13:48:24;;;;;;;11.05;7.95;;;5.30;99.90;;;;;;5010748;28;20324;-75
2021/01/01 13:51:10;;;;;;;11.75;8.60;;;5.30;99.90;;;;;;5022358;28;20724;-75
2021/01/01 13:53:55;;;;;;;13.77;9.95;;;5.20;99.90;;;;;;5019920;28;20773;-75
2021/01/01 13:56:40;;;;;;;10.45;8.48;;;5.30;99.90;;;;;;5026273;28;20294;-75
2021/01/01 13:59:26;;;;;;;13.43;9.70;;;5.30;99.90;;;;;;5015091;28;20603;-74
2021/01/01 14:02:11;;;;;;;14.43;10.43;;;5.20;99.90;;;;;;5013848;28;20209;-75
2021/01/01 14:04:56;;;;;;;15.18;9.85;;;5.30;99.90;;;;;;5021357;28;20292;-75
2021/01/01 14:07:41;;;;;;;13.65;10.15;;;5.30;99.90;;;;;;5016832;28;20905;-75
2021/01/01 14:10:26;;;;;;;11.95;9.77;;;5.40;99.90;;;;;;5018303;28;20229;-75
2021/01/01 14:13:12;;;;;;;14.57;10.52;;;5.50;99.90;;;;;;5024460;28;20213;-75
2021/01/01 14:15:58;;;;;;;16.23;10.05;;;5.40;99.90;;;;;;5018918;28;20209;-75
2021/01/01 14:18:43;;;;;;;15.60;10.02;;;5.40;99.90;;;;;;5020670;28;20229;-75
2021/01/01 14:21:29;;;;;;;12.20;9.52;;;5.40;99.90;;;;;;5019984;28;20648;-75
2021/01/01 14:24:15;;;;;;;13.00;9.70;;;5.50;99.90;;;;;;5019475;28;20201;-73
2021/01/01 14:27:00;;;;;;;14.65;9.98;;;5.60;99.90;;;;;;5017637;28;20205;-74
2021/01/01 14:29:45;;;;;;;22.67;14.82;;;5.50;99.90;;;;;;5019111;28;20256;-74
2021/01/01 14:32:31;;;;;;;18.00;12.35;;;5.50;99.90;;;;;;5019699;28;20215;-76
2021/01/01 14:35:16;;;;;;;18.13;13.20;;;5.50;99.90;;;;;;5022010;28;20252;-75
2021/01/01 14:38:01;;;;;;;12.75;10.00;;;5.50;99.90;;;;;;5019171;28;20252;-74
2021/01/01 14:40:47;;;;;;;16.30;11.38;;;5.50;99.90;;;;;;5022153;28;20288;-74
2021/01/01 14:43:32;;;;;;;14.25;10.40;;;5.50;99.90;;;;;;5019883;28;20233;-75
2021/01/01 14:46:20;;;;;;;13.30;10.50;;;5.60;99.90;;;;;;5020740;28;21843;-73
2021/01/01 14:49:06;;;;;;;14.27;10.68;;;5.60;99.90;;;;;;5021936;28;20826;-74
2021/01/01 14:51:52;;;;;;;12.98;10.30;;;5.60;99.90;;;;;;5016910;28;20802;-75
2021/01/01 14:54:37;;;;;;;14.95;11.48;;;5.70;99.90;;;;;;5020058;28;20260;-74
2021/01/01 14:57:23;;;;;;;12.45;10.00;;;5.60;99.90;;;;;;5024562;28;20201;-73
2021/01/01 15:00:09;;;;;;;14.50;10.18;;;5.50;99.90;;;;;;5022810;28;20605;-74
2021/01/01 15:02:55;;;;;;;14.27;10.88;;;5.40;99.90;;;;;;5026686;28;20595;-75
2021/01/01 15:05:41;;;;;;;12.43;9.95;;;5.40;99.90;;;;;;5025269;28;20780;-74
2021/01/01 15:08:26;;;;;;;11.95;9.23;;;5.40;99.90;;;;;;5027158;28;20284;-75
2021/01/01 15:11:11;;;;;;;13.77;10.13;;;5.30;99.90;;;;;;5025758;28;20357;-72
2021/01/01 15:13:56;;;;;;;17.15;12.32;;;5.30;99.90;;;;;;5024297;28;20252;-74
2021/01/01 15:16:41;;;;;;;18.00;11.70;;;5.20;99.90;;;;;;5026899;28;20589;-75
2021/01/01 15:19:26;;;;;;;16.90;11.05;;;5.20;99.90;;;;;;5027561;28;20258;-74
2021/01/01 15:22:16;;;;;;;15.27;10.52;;;5.20;99.90;;;;;;5020652;28;20236;-74
2021/01/01 15:25:01;;;;;;;16.42;12.35;;;5.10;99.90;;;;;;5021173;28;20206;-73
2021/01/01 15:27:46;;;;;;;16.63;11.52;;;5.00;99.90;;;;;;5029113;28;20209;-74